Time;durP1;ratioP1;P1;durP2;ratioP2;P2;SDS_P1;SDS_P2;PMS_P1;PMS_P2;Temp;Humidity;BMP_temperature;BMP_pressure;BME280_temperature;BME280_humidity;BME280_pressure;Samples;Min_cycle;Max_cycle;Signal;HPM_P1;HPM_P2
2022/08/10 00:01:52;;;;;;;3.67;1.13;;;;;;;19.21;100.00;101519.00;4951941;28;20035;-67
2022/08/10 00:04:21;;;;;;;3.95;1.77;;;;;;;19.19;100.00;101514.72;4954052;28;20106;-67
2022/08/10 00:06:46;;;;;;;2.47;1.38;;;;;;;19.15;100.00;101506.09;4951638;28;20041;-67
2022/08/10 00:09:11;;;;;;;5.32;1.60;;;;;;;19.22;100.00;101510.03;4952600;28;20027;-67
2022/08/10 00:11:37;;;;;;;3.45;1.50;;;;;;;19.12;100.00;101498.31;4938482;28;20146;-67
2022/08/10 00:14:02;;;;;;;3.13;1.50;;;;;;;19.18;100.00;101503.22;4949739;28;20469;-67
2022/08/10 00:16:28;;;;;;;5.13;1.65;;;;;;;19.02;100.00;101483.03;4927918;28;20039;-67
2022/08/10 00:18:53;;;;;;;3.03;1.20;;;;;;;19.13;100.00;101502.66;4947602;28;20038;-67
2022/08/10 00:21:18;;;;;;;3.83;1.90;;;;;;;19.08;100.00;101512.78;4945427;28;20051;-67
2022/08/10 00:23:44;;;;;;;6.47;1.45;;;;;;;19.01;100.00;101503.50;4953789;29;20070;-68
2022/08/10 00:26:09;;;;;;;3.72;1.70;;;;;;;18.94;100.00;101504.88;4952482;28;20031;-67
2022/08/10 00:28:35;;;;;;;9.55;1.80;;;;;;;18.87;100.00;101503.56;4941902;28;20035;-67
2022/08/10 00:31:00;;;;;;;3.00;1.48;;;;;;;18.79;100.00;101498.75;4953914;28;20038;-67
2022/08/10 00:33:26;;;;;;;4.63;1.80;;;;;;;18.76;100.00;101500.75;4954085;28;20027;-66
2022/08/10 00:35:51;;;;;;;4.15;1.73;;;;;;;18.70;100.00;101495.84;4953375;28;20524;-67
2022/08/10 00:38:16;;;;;;;6.45;1.70;;;;;;;18.60;100.00;101492.94;4953343;28;20027;-67
2022/08/10 00:40:42;;;;;;;7.63;1.60;;;;;;;18.54;100.00;101501.34;4953568;28;20031;-67
2022/08/10 00:43:07;;;;;;;2.97;1.40;;;;;;;18.45;100.00;101491.28;4953985;28;20114;-67
2022/08/10 00:45:34;;;;;;;4.78;1.67;;;;;;;18.13;100.00;101448.13;4949597;28;20023;-67
2022/08/10 00:47:59;;;;;;;3.58;1.55;;;;;;;18.30;100.00;101490.44;4950978;29;20055;-67
2022/08/10 00:50:25;;;;;;;3.50;1.55;;;;;;;18.22;100.00;101495.41;4951895;28;20493;-67
2022/08/10 00:52:50;;;;;;;4.78;1.65;;;;;;;18.16;100.00;101493.13;4940565;28;20039;-67
2022/08/10 00:55:16;;;;;;;3.00;1.63;;;;;;;18.11;100.00;101491.75;4953379;28;20027;-67
2022/08/10 00:57:41;;;;;;;5.50;1.40;;;;;;;18.02;100.00;101485.19;4937452;28;20027;-67
2022/08/10 01:00:08;;;;;;;3.75;1.88;;;;;;;17.55;100.00;101408.41;4943313;28;20540;-67
2022/08/10 01:02:34;;;;;;;3.33;1.70;;;;;;;17.88;100.00;101474.56;4950169;28;20042;-67
2022/08/10 01:05:04;;;;;;;3.55;1.60;;;;;;;17.96;100.00;101488.25;4953411;28;20031;-67
2022/08/10 01:07:41;;;;;;;4.88;1.55;;;;;;;17.95;100.00;101491.84;4953983;29;20035;-67
2022/08/10 01:10:20;;;;;;;3.28;1.45;;;;;;;17.92;100.00;101478.75;4952013;28;20039;-68
2022/08/10 01:13:12;;;;;;;5.93;1.80;;;;;;;17.90;100.00;101488.63;4941793;28;20031;-69
2022/08/10 01:15:54;;;;;;;4.28;1.50;;;;;;;17.88;100.00;101480.72;4928625;29;20039;-67
2022/08/10 01:18:34;;;;;;;4.50;1.92;;;;;;;17.86;100.00;101487.13;4934469;28;20417;-67
2022/08/10 01:21:12;;;;;;;2.72;1.80;;;;;;;17.83;100.00;101493.47;4953738;28;20035;-68
2022/08/10 01:23:53;;;;;;;4.18;1.65;;;;;;;17.79;100.00;101478.66;4940831;28;20106;-66
2022/08/10 01:26:39;;;;;;;3.80;1.77;;;;;;;17.75;100.00;101478.94;4953403;29;20038;-66
2022/08/10 01:29:07;;;;;;;3.47;1.80;;;;;;;17.72;100.00;101473.81;4939049;29;20027;-67
2022/08/10 01:31:37;;;;;;;4.93;1.85;;;;;;;17.68;100.00;101474.97;4953198;28;20377;-66
2022/08/10 01:34:09;;;;;;;3.22;1.75;;;;;;;17.69;100.00;101476.69;4935725;28;20035;-66
2022/08/10 01:36:44;;;;;;;3.92;1.90;;;;;;;17.64;100.00;101476.13;4951775;29;20043;-66
2022/08/10 01:39:32;;;;;;;3.25;1.77;;;;;;;17.61;100.00;101477.16;4935941;28;20027;-67
2022/08/10 01:41:59;;;;;;;2.72;1.40;;;;;;;17.60;100.00;101469.28;4936002;28;20108;-67
2022/08/10 01:44:39;;;;;;;3.85;2.05;;;;;;;17.51;100.00;101470.66;4974225;28;20383;-67
2022/08/10 01:50:03;;;;;;;2.80;1.70;;;;;;;17.51;100.00;101464.47;4952242;28;20047;-67
2022/08/10 01:52:29;;;;;;;4.40;1.80;;;;;;;17.47;100.00;101463.00;4952847;28;20504;-67
2022/08/10 01:54:56;;;;;;;5.15;2.00;;;;;;;17.46;100.00;101466.59;4953043;28;20031;-67
2022/08/10 01:57:23;;;;;;;3.10;1.55;;;;;;;17.41;100.00;101458.03;4967570;28;20031;-67
2022/08/10 01:59:50;;;;;;;3.17;1.98;;;;;;;17.34;100.00;101450.44;4935161;28;20035;-66
2022/08/10 02:02:16;;;;;;;4.22;2.20;;;;;;;17.34;100.00;101453.09;4951917;28;20480;-67
2022/08/10 02:04:45;;;;;;;3.40;1.85;;;;;;;17.34;100.00;101465.53;4951386;28;20031;-67
2022/08/10 02:07:13;;;;;;;4.03;2.03;;;;;;;17.32;100.00;101459.47;4964258;28;20025;-67
2022/08/10 02:09:41;;;;;;;3.78;2.10;;;;;;;17.18;100.00;101438.19;4935144;28;20392;-66
2022/08/10 02:12:09;;;;;;;5.57;2.30;;;;;;;17.23;100.00;101452.06;5018301;28;20023;-67
2022/08/10 02:14:39;;;;;;;6.18;1.92;;;;;;;17.17;100.00;101455.94;4952176;28;20031;-67
2022/08/10 02:17:16;;;;;;;4.68;2.00;;;;;;;17.15;100.00;101456.97;4933723;29;20145;-66
2022/08/10 02:19:42;;;;;;;3.55;1.55;;;;;;;17.06;100.00;101441.59;4951789;28;20385;-67
2022/08/10 02:22:08;;;;;;;5.50;1.88;;;;;;;17.11;100.00;101460.75;5017268;28;20035;-67
2022/08/10 02:24:35;;;;;;;5.22;1.60;;;;;;;17.11;100.00;101453.66;4933125;28;20039;-67
2022/08/10 02:27:01;;;;;;;4.70;2.00;;;;;;;17.09;100.00;101458.22;4935206;28;20444;-67
2022/08/10 02:29:27;;;;;;;4.18;1.60;;;;;;;17.07;100.00;101460.09;4934865;28;20045;-67
2022/08/10 02:31:53;;;;;;;6.47;2.22;;;;;;;17.04;100.00;101457.63;4949071;28;20035;-67
2022/08/10 02:34:18;;;;;;;4.20;2.30;;;;;;;17.08;100.00;101461.81;5004970;28;20028;-67
2022/08/10 02:36:48;;;;;;;5.68;2.38;;;;;;;17.07;100.00;101461.88;5017921;28;20027;-67
2022/08/10 02:39:15;;;;;;;4.47;2.00;;;;;;;17.03;100.00;101463.91;4952316;28;20062;-67
2022/08/10 02:42:02;;;;;;;3.90;2.25;;;;;;;17.00;100.00;101464.06;4952081;28;20477;-67
2022/08/10 02:44:38;;;;;;;4.60;2.25;;;;;;;16.93;100.00;101468.03;4934496;28;20023;-67
2022/08/10 02:47:38;;;;;;;3.60;2.20;;;;;;;16.86;100.00;101466.69;4935028;28;20255;-68
2022/08/10 02:50:12;;;;;;;6.60;2.35;;;;;;;16.85;100.00;101459.66;5017432;28;20055;-67
2022/08/10 02:52:41;;;;;;;4.90;2.75;;;;;;;16.81;100.00;101459.00;4966784;28;20484;-68
2022/08/10 02:55:21;;;;;;;5.35;2.33;;;;;;;16.76;100.00;101454.91;4933097;29;20058;-67
2022/08/10 02:57:51;;;;;;;4.55;2.28;;;;;;;16.73;100.00;101455.06;4940521;28;20074;-68
2022/08/10 03:00:16;;;;;;;8.88;3.25;;;;;;;16.43;100.00;101404.59;4922155;28;20027;-68
2022/08/10 03:02:45;;;;;;;3.58;2.35;;;;;;;16.68;100.00;101459.81;4941087;28;20078;-68
2022/08/10 03:05:13;;;;;;;4.43;2.80;;;;;;;16.67;100.00;101460.72;4950729;28;20433;-69
2022/08/10 03:07:46;;;;;;;4.07;2.35;;;;;;;16.60;100.00;101448.75;4951430;28;20026;-67
2022/08/10 03:10:15;;;;;;;5.75;2.55;;;;;;;16.60;100.00;101454.06;4951434;28;20070;-68
2022/08/10 03:12:42;;;;;;;4.22;2.30;;;;;;;16.57;100.00;101451.59;4966536;28;20058;-68
2022/08/10 03:15:10;;;;;;;5.53;2.55;;;;;;;16.54;100.00;101449.09;4966717;28;20049;-67
2022/08/10 03:17:36;;;;;;;6.40;2.80;;;;;;;16.52;100.00;101453.66;5012760;28;20039;-68
2022/08/10 03:20:02;;;;;;;4.57;2.70;;;;;;;16.49;100.00;101459.13;4958399;28;20077;-68
2022/08/10 03:22:28;;;;;;;5.43;2.33;;;;;;;16.45;100.00;101454.94;5017121;28;20039;-67
2022/08/10 03:24:53;;;;;;;5.10;3.50;;;;;;;16.38;100.00;101451.78;4994071;28;20093;-68
2022/08/10 03:27:19;;;;;;;5.15;3.33;;;;;;;16.32;100.00;101450.31;4927644;29;20107;-67
2022/08/10 03:29:45;;;;;;;4.47;2.45;;;;;;;16.27;100.00;101449.75;4945199;28;20384;-68
2022/08/10 03:32:11;;;;;;;9.45;3.70;;;;;;;16.24;100.00;101449.91;4947683;28;20063;-67
2022/08/10 03:34:37;;;;;;;4.68;2.97;;;;;;;16.20;100.00;101451.03;4928278;29;20051;-67
2022/08/10 03:37:03;;;;;;;9.20;3.05;;;;;;;16.22;100.00;101461.56;5017409;28;20023;-67
2022/08/10 03:39:29;;;;;;;8.20;3.65;;;;;;;15.93;100.00;101410.16;4939757;29;20105;-67
2022/08/10 03:41:58;;;;;;;5.03;2.90;;;;;;;16.12;100.00;101441.81;4959359;28;20035;-67
2022/08/10 03:44:27;;;;;;;7.05;3.17;;;;;;;16.09;100.00;101442.81;4924945;28;20042;-67
2022/08/10 03:46:53;;;;;;;8.13;3.22;;;;;;;16.13;100.00;101449.66;4952919;28;20065;-68
2022/08/10 03:49:19;;;;;;;10.00;3.10;;;;;;;16.11;100.00;101451.56;4969684;28;20370;-67
2022/08/10 03:51:48;;;;;;;4.53;2.95;;;;;;;16.05;100.00;101443.09;4962971;28;20117;-68
2022/08/10 03:54:14;;;;;;;6.38;3.50;;;;;;;16.02;100.00;101445.91;4942411;28;20033;-67
2022/08/10 03:56:40;;;;;;;7.90;3.42;;;;;;;15.57;100.00;101391.88;4945765;28;20078;-68
2022/08/10 03:59:08;;;;;;;8.73;3.88;;;;;;;15.89;100.00;101448.38;5017422;28;20031;-68
2022/08/10 04:01:33;;;;;;;6.95;3.88;;;;;;;15.79;100.00;101445.38;4930885;28;20477;-67
2022/08/10 04:03:59;;;;;;;8.80;4.35;;;;;;;15.72;100.00;101444.00;4941372;28;20035;-67
2022/08/10 04:06:24;;;;;;;6.88;3.78;;;;;;;15.73;100.00;101450.16;4941494;28;20373;-68
2022/08/10 04:08:49;;;;;;;5.35;3.28;;;;;;;15.57;100.00;101434.25;4937225;28;20065;-67
2022/08/10 04:11:15;;;;;;;5.13;3.22;;;;;;;15.68;100.00;101452.22;4942027;28;20035;-68
2022/08/10 04:13:40;;;;;;;11.70;4.40;;;;;;;15.68;100.00;101453.06;4947607;28;20053;-67
2022/08/10 04:16:06;;;;;;;5.55;3.33;;;;;;;15.61;100.00;101454.34;4953997;28;20162;-67
2022/08/10 04:18:32;;;;;;;4.97;3.40;;;;;;;15.32;100.00;101409.97;4952385;28;20104;-67
2022/08/10 04:21:09;;;;;;;7.95;3.55;;;;;;;15.39;100.00;101437.00;4941774;29;20039;-67
2022/08/10 04:23:37;;;;;;;6.13;3.67;;;;;;;15.50;100.00;101450.56;5014533;28;20032;-67
2022/08/10 04:26:03;;;;;;;5.53;3.65;;;;;;;15.48;100.00;101460.38;4929968;29;20504;-67
2022/08/10 04:28:29;;;;;;;5.25;3.75;;;;;;;15.46;100.00;101462.22;4953702;28;20062;-67
2022/08/10 04:30:56;;;;;;;4.63;3.45;;;;;;;15.44;100.00;101458.81;4951767;28;20039;-67
2022/08/10 04:33:23;;;;;;;5.35;3.53;;;;;;;15.44;100.00;101464.09;4953925;28;20035;-67
2022/08/10 04:35:48;;;;;;;6.57;3.67;;;;;;;15.59;100.00;101463.31;4937280;29;20041;-67
2022/08/10 04:38:14;;;;;;;5.35;3.55;;;;;;;15.54;100.00;101463.56;4935650;28;20419;-66
2022/08/10 04:40:41;;;;;;;5.10;3.47;;;;;;;15.22;100.00;101422.84;4924334;28;20027;-66
2022/08/10 04:43:07;;;;;;;4.97;3.85;;;;;;;15.50;100.00;101464.66;4936399;28;20370;-66
2022/08/10 04:45:33;;;;;;;10.60;4.60;;;;;;;15.51;100.00;101460.22;4953328;28;20043;-67
2022/08/10 04:47:58;;;;;;;7.07;3.88;;;;;;;15.50;100.00;101458.50;4954173;29;20031;-67
2022/08/10 04:50:24;;;;;;;5.55;4.05;;;;;;;15.02;100.00;101378.06;4953279;28;20027;-66
2022/08/10 04:52:49;;;;;;;6.10;4.45;;;;;;;15.51;100.00;101457.56;4953759;28;20088;-66
2022/08/10 04:55:14;;;;;;;6.68;4.55;;;;;;;15.52;100.00;101468.06;4952746;28;20031;-67
2022/08/10 04:57:40;;;;;;;5.32;4.40;;;;;;;15.50;100.00;101463.81;4940184;28;20384;-66
2022/08/10 05:00:06;;;;;;;6.35;3.75;;;;;;;15.48;100.00;101465.66;4946275;28;20028;-66
2022/08/10 05:02:31;;;;;;;4.72;4.10;;;;;;;15.57;100.00;101476.66;4951436;28;20067;-66
2022/08/10 05:04:57;;;;;;;7.85;4.50;;;;;;;15.61;100.00;101470.25;4940304;28;20062;-67
2022/08/10 05:07:22;;;;;;;6.95;4.55;;;;;;;15.17;100.00;101395.78;4938671;28;20032;-66
2022/08/10 05:09:50;;;;;;;10.20;4.70;;;;;;;15.64;100.00;101471.88;4953131;28;20020;-66
2022/08/10 05:12:15;;;;;;;5.90;3.92;;;;;;;15.70;100.00;101476.84;4953743;28;20093;-66
2022/08/10 05:14:41;;;;;;;5.82;4.43;;;;;;;15.70;100.00;101466.25;4948239;28;20032;-67
2022/08/10 05:17:06;;;;;;;7.43;4.28;;;;;;;15.77;100.00;101472.91;4946689;28;20175;-66
2022/08/10 05:19:32;;;;;;;5.93;4.45;;;;;;;15.83;100.00;101470.78;4935975;28;20027;-67
2022/08/10 05:21:57;;;;;;;10.13;4.88;;;;;;;15.84;100.00;101453.94;4938835;28;20420;-66
2022/08/10 05:24:22;;;;;;;7.50;5.07;;;;;;;15.90;100.00;101454.53;4939451;28;20043;-66
2022/08/10 05:26:48;;;;;;;8.55;4.00;;;;;;;15.96;100.00;101457.69;4940072;28;20038;-66
2022/08/10 05:29:13;;;;;;;6.30;4.28;;;;;;;16.05;100.00;101459.88;4947147;29;20043;-66
2022/08/10 05:31:39;;;;;;;6.72;4.80;;;;;;;16.17;100.00;101461.81;4964576;28;20062;-67
2022/08/10 05:34:04;;;;;;;5.72;4.57;;;;;;;16.23;100.00;101464.13;4946118;28;20605;-67
2022/08/10 05:36:29;;;;;;;5.60;4.13;;;;;;;16.35;100.00;101467.88;4938233;28;20067;-66
2022/08/10 05:38:55;;;;;;;6.60;4.75;;;;;;;16.46;100.00;101473.41;4920014;28;20104;-67
2022/08/10 05:41:21;;;;;;;5.72;4.70;;;;;;;16.58;100.00;101471.91;4948657;28;20024;-67
2022/08/10 05:43:47;;;;;;;8.38;4.97;;;;;;;16.70;100.00;101476.47;4925659;28;20440;-67
2022/08/10 05:46:13;;;;;;;6.22;4.68;;;;;;;16.79;100.00;101468.84;4934588;28;20460;-66
2022/08/10 05:48:40;;;;;;;9.60;4.15;;;;;;;16.84;100.00;101472.09;4953172;28;20064;-67
2022/08/10 05:51:06;;;;;;;7.97;4.57;;;;;;;16.97;100.00;101480.16;4935180;28;20039;-66
2022/08/10 05:53:33;;;;;;;6.10;4.47;;;;;;;17.06;100.00;101478.78;4966918;28;20421;-66
2022/08/10 05:55:59;;;;;;;5.68;4.07;;;;;;;17.11;100.00;101471.38;4952312;28;20023;-66
2022/08/10 05:58:24;;;;;;;7.68;4.68;;;;;;;17.05;100.00;101455.81;4966398;28;20481;-66
2022/08/10 06:00:53;;;;;;;5.68;3.95;;;;;;;16.97;100.00;101427.06;4947853;28;20047;-66
2022/08/10 06:03:21;;;;;;;9.48;4.25;;;;;;;17.36;100.00;101476.94;4951857;28;20114;-67
2022/08/10 06:05:46;;;;;;;10.85;4.15;;;;;;;17.44;100.00;101471.16;4934005;28;20027;-66
2022/08/10 06:08:15;;;;;;;11.45;5.13;;;;;;;17.53;100.00;101483.88;4934988;28;20471;-66
2022/08/10 06:10:43;;;;;;;9.40;4.30;;;;;;;17.54;100.00;101469.63;4934919;28;20035;-66
2022/08/10 06:15:55;;;;;;;5.90;3.80;;;;;;;17.75;100.00;101482.47;4952276;29;20101;-66
2022/08/10 06:18:21;;;;;;;5.30;3.38;;;;;;;17.68;100.00;101462.53;4951835;28;20023;-66
2022/08/10 06:20:47;;;;;;;8.00;4.25;;;;;;;17.86;100.00;101487.13;4952228;28;20032;-66
2022/08/10 06:23:13;;;;;;;7.32;4.97;;;;;;;17.88;100.00;101470.09;4938062;28;20088;-66
2022/08/10 06:25:38;;;;;;;8.15;4.60;;;;;;;17.96;100.00;101477.59;4952223;28;20027;-66
2022/08/10 06:28:05;;;;;;;10.68;4.18;;;;;;;18.03;100.00;101478.91;4949848;28;20534;-67
2022/08/10 06:30:33;;;;;;;8.13;4.38;;;;;;;17.99;100.00;101472.09;4939844;29;20031;-67
2022/08/10 06:32:59;;;;;;;10.70;4.80;;;;;;;18.15;100.00;101494.09;4937961;28;20039;-66
2022/08/10 06:35:56;;;;;;;5.97;4.15;;;;;;;18.18;100.00;101496.53;4934615;29;20118;-66
2022/08/10 06:38:23;;;;;;;7.00;4.10;;;;;;;18.14;100.00;101475.56;4966034;28;20511;-66
2022/08/10 06:40:48;;;;;;;8.15;4.55;;;;;;;18.28;100.00;101489.69;4945188;28;20066;-66
2022/08/10 06:43:17;;;;;;;9.63;3.90;;;;;;;18.41;100.00;101499.53;5017447;28;20062;-66
2022/08/10 06:45:46;;;;;;;6.57;3.92;;;;;;;18.47;100.00;101500.00;4960250;28;20057;-67
2022/08/10 06:48:18;;;;;;;6.53;4.50;;;;;;;18.53;100.00;101490.78;5005325;28;20123;-66
2022/08/10 06:50:49;;;;;;;8.93;4.43;;;;;;;18.58;100.00;101488.69;4938994;28;20461;-66
2022/08/10 06:53:17;;;;;;;5.95;4.20;;;;;;;18.69;100.00;101494.16;4934508;29;20024;-66
2022/08/10 06:55:55;;;;;;;5.68;3.72;;;;;;;18.77;100.00;101499.81;4934387;29;20378;-66
2022/08/10 06:58:24;;;;;;;5.68;3.95;;;;;;;18.81;100.00;101493.34;4935430;28;20039;-67
2022/08/10 07:00:51;;;;;;;13.52;3.88;;;;;;;18.83;100.00;101492.25;4951736;28;20458;-66
2022/08/10 07:03:18;;;;;;;7.40;4.13;;;;;;;18.92;100.00;101496.13;4951411;28;20032;-67
2022/08/10 07:05:46;;;;;;;5.45;3.78;;;;;;;19.01;100.00;101495.50;4951580;28;20049;-66
2022/08/10 07:08:13;;;;;;;5.78;3.78;;;;;;;19.06;100.00;101482.72;4948365;28;20065;-66
2022/08/10 07:10:39;;;;;;;6.82;4.20;;;;;;;19.17;100.00;101488.16;4948997;28;20055;-66
2022/08/10 07:13:05;;;;;;;6.47;4.95;;;;;;;19.25;100.00;101491.16;4937005;28;20110;-66
2022/08/10 07:15:31;;;;;;;5.57;3.63;;;;;;;19.30;100.00;101482.84;4941276;28;20375;-66
2022/08/10 07:17:57;;;;;;;13.68;3.65;;;;;;;19.38;100.00;101492.03;4909121;28;20050;-66
2022/08/10 07:20:23;;;;;;;7.85;4.22;;;;;;;19.25;100.00;101464.53;4930455;28;20102;-66
2022/08/10 07:22:53;;;;;;;6.22;3.38;;;;;;;19.49;100.00;101485.13;5000984;28;20032;-66
2022/08/10 07:25:20;;;;;;;6.57;3.30;;;;;;;19.60;100.00;101483.41;4998920;28;20043;-67
2022/08/10 07:27:47;;;;;;;6.25;3.97;;;;;;;19.69;100.00;101487.25;4991444;28;20084;-67
2022/08/10 07:30:12;;;;;;;7.05;3.72;;;;;;;19.77;100.00;101495.56;4939513;28;20075;-66
2022/08/10 07:32:40;;;;;;;9.73;3.75;;;;;;;19.86;100.00;101493.09;5001147;28;20556;-66
2022/08/10 07:35:07;;;;;;;6.38;3.15;;;;;;;19.94;100.00;101497.03;4941901;28;20036;-67
2022/08/10 07:37:34;;;;;;;4.60;2.67;;;;;;;19.87;100.00;101475.28;4997071;28;20049;-67
2022/08/10 07:40:02;;;;;;;7.55;3.08;;;;;;;20.04;100.00;101496.25;5009052;28;20078;-66
2022/08/10 07:42:28;;;;;;;8.50;3.72;;;;;;;20.10;100.00;101492.28;4933672;28;20028;-66
2022/08/10 07:44:53;;;;;;;8.45;4.05;;;;;;;20.16;100.00;101500.72;4943877;28;20041;-67
2022/08/10 07:47:27;;;;;;;6.35;3.78;;;;;;;20.23;100.00;101509.97;4950628;29;20492;-66
2022/08/10 07:49:58;;;;;;;7.75;3.97;;;;;;;20.33;100.00;101505.72;4947390;28;20789;-66
2022/08/10 07:52:23;;;;;;;17.90;5.55;;;;;;;20.46;100.00;101510.13;4933271;28;20042;-67
2022/08/10 07:54:50;;;;;;;11.60;3.90;;;;;;;20.56;100.00;101516.50;4965889;28;20420;-66
2022/08/10 07:57:20;;;;;;;5.63;3.30;;;;;;;20.60;100.00;101518.84;4944202;28;20032;-66
2022/08/10 07:59:50;;;;;;;6.30;3.20;;;;;;;20.65;100.00;101521.19;4933502;29;20362;-67
2022/08/10 08:02:29;;;;;;;8.90;3.65;;;;;;;20.55;100.00;101494.28;4964255;28;20039;-67
2022/08/10 08:04:58;;;;;;;6.20;3.85;;;;;;;20.67;100.00;101505.88;4935769;28;20047;-66
2022/08/10 08:07:24;;;;;;;5.03;2.95;;;;;;;20.79;100.00;101523.66;5009998;28;20019;-66
2022/08/10 08:09:49;;;;;;;5.53;3.10;;;;;;;20.85;100.00;101523.22;4950116;28;20027;-67
2022/08/10 08:12:15;;;;;;;8.68;4.05;;;;;;;20.87;100.00;101508.78;5012744;28;20071;-67
2022/08/10 08:14:42;;;;;;;5.45;2.80;;;;;;;20.90;100.00;101510.34;4951218;28;20091;-66
2022/08/10 08:17:08;;;;;;;7.43;3.88;;;;;;;21.02;100.00;101514.75;4918607;29;20059;-66
2022/08/10 08:19:33;;;;;;;4.78;3.60;;;;;;;21.10;100.00;101515.06;4960182;28;20067;-67
2022/08/10 08:21:59;;;;;;;6.20;3.45;;;;;;;21.07;100.00;101499.22;4940734;28;20034;-66
2022/08/10 08:24:25;;;;;;;5.60;3.75;;;;;;;21.27;100.00;101511.97;4953862;28;20073;-67
2022/08/10 08:26:51;;;;;;;6.55;3.78;;;;;;;21.33;100.00;101500.78;4924303;28;20031;-66
2022/08/10 08:29:18;;;;;;;5.03;3.03;;;;;;;21.45;100.00;101523.06;4938645;28;20028;-66
2022/08/10 08:31:44;;;;;;;5.90;3.35;;;;;;;21.55;100.00;101513.34;4931736;29;20039;-67
2022/08/10 08:34:12;;;;;;;5.55;3.28;;;;;;;21.65;100.00;101508.13;4924566;28;20039;-66
2022/08/10 08:36:40;;;;;;;6.38;3.90;;;;;;;21.73;100.00;101506.53;4928866;28;20030;-66
2022/08/10 08:39:06;;;;;;;5.65;3.63;;;;;;;21.79;100.00;101497.19;4941497;29;20031;-67
2022/08/10 08:41:34;;;;;;;6.88;3.53;;;;;;;21.92;100.00;101505.97;4931897;28;20027;-66
2022/08/10 08:44:07;;;;;;;12.02;3.67;;;;;;;21.99;100.00;101501.84;4939333;28;20490;-66
2022/08/10 08:46:55;;;;;;;4.85;3.20;;;;;;;22.12;100.00;101510.56;4935955;28;20396;-66
2022/08/10 08:49:52;;;;;;;6.30;2.92;;;;;;;22.24;100.00;101509.56;4923226;29;20058;-66
2022/08/10 08:52:48;;;;;;;4.78;3.10;;;;;;;22.36;100.00;101511.25;4941095;28;20079;-67
2022/08/10 08:55:50;;;;;;;5.35;3.33;;;;;;;22.49;100.00;101503.06;4944649;28;20042;-66
2022/08/10 08:58:27;;;;;;;5.45;3.05;;;;;;;22.58;100.00;101504.13;4937206;28;20106;-66
2022/08/10 09:01:20;;;;;;;7.35;3.20;;;;;;;22.70;100.00;101500.47;4937221;28;20044;-66
2022/08/10 09:04:10;;;;;;;6.70;3.30;;;;;;;22.78;100.00;101498.00;4951633;29;20525;-67
2022/08/10 09:06:50;;;;;;;5.35;2.88;;;;;;;22.88;100.00;101502.44;4951685;28;20031;-66
2022/08/10 09:09:28;;;;;;;4.97;3.17;;;;;;;23.02;100.00;101495.94;4939316;28;20059;-67
2022/08/10 09:12:03;;;;;;;5.78;3.30;;;;;;;23.12;100.00;101488.81;4935721;28;20036;-67
2022/08/10 09:14:49;;;;;;;5.10;2.95;;;;;;;23.22;100.00;101491.53;4933043;29;20135;-67
2022/08/10 09:17:54;;;;;;;8.55;3.05;;;;;;;23.31;100.00;101488.09;4939492;28;20079;-66
2022/08/10 09:20:34;;;;;;;12.85;3.50;;;;;;;23.32;100.00;101471.03;5001671;28;20032;-67
2022/08/10 09:23:07;;;;;;;7.15;2.53;;;;;;;23.47;100.00;101487.63;4935374;28;20047;-67
2022/08/10 09:25:38;;;;;;;6.13;3.25;;;;;;;23.53;100.00;101487.09;4937861;28;20027;-67
2022/08/10 09:28:22;;;;;;;6.13;3.33;;;;;;;23.52;100.00;101474.69;5006138;28;21343;-66
2022/08/10 09:30:56;;;;;;;6.25;3.65;;;;;;;23.69;100.00;101487.47;4932781;28;20063;-67
2022/08/10 09:33:38;;;;;;;10.90;3.45;;;;;;;23.54;100.00;101457.47;4938607;28;20047;-67
2022/08/10 09:36:26;;;;;;;7.68;3.53;;;;;;;23.78;100.00;101475.94;4943785;28;20028;-67
2022/08/10 09:39:07;;;;;;;6.32;3.47;;;;;;;23.85;100.00;101471.72;4923690;28;20031;-67
2022/08/10 09:42:07;;;;;;;6.20;3.35;;;;;;;23.91;97.78;101471.16;4942387;28;20488;-67
2022/08/10 09:44:44;;;;;;;9.18;3.35;;;;;;;23.97;94.94;101469.75;4976180;28;20040;-66
2022/08/10 09:47:34;;;;;;;7.10;2.72;;;;;;;24.10;93.19;101468.53;4950413;28;20035;-66
2022/08/10 09:50:17;;;;;;;8.07;3.70;;;;;;;24.20;92.86;101466.75;4944040;28;20032;-67
2022/08/10 09:52:50;;;;;;;6.40;3.33;;;;;;;23.98;94.62;101421.28;4934517;28;20442;-67
2022/08/10 09:55:52;;;;;;;10.02;3.50;;;;;;;24.36;92.82;101460.84;4952267;28;20085;-67
2022/08/10 09:58:37;;;;;;;6.80;2.92;;;;;;;24.55;88.99;101460.84;4951954;28;20075;-66
2022/08/10 10:01:15;;;;;;;6.35;3.45;;;;;;;24.65;88.25;101456.31;4935515;28;20039;-67
2022/08/10 10:03:47;;;;;;;4.30;2.63;;;;;;;24.73;87.56;101452.94;4953447;28;20090;-67
2022/08/10 10:06:23;;;;;;;5.57;2.88;;;;;;;24.82;86.56;101441.31;4957429;28;20035;-67
2022/08/10 10:09:02;;;;;;;4.90;2.90;;;;;;;24.75;85.40;101418.69;4944309;29;20478;-66
2022/08/10 10:12:05;;;;;;;8.30;3.20;;;;;;;25.02;86.42;101437.63;4952397;29;20035;-67
2022/08/10 10:18:04;;;;;;;6.07;3.03;;;;;;;25.37;83.94;101437.84;4950489;28;20109;-67
2022/08/10 10:20:51;;;;;;;7.03;2.50;;;;;;;25.51;81.36;101431.16;4932797;28;20082;-67
2022/08/10 10:23:19;;;;;;;7.03;2.95;;;;;;;25.58;79.78;101436.81;4938633;28;20027;-66
2022/08/10 10:26:10;;;;;;;5.55;2.50;;;;;;;25.68;77.62;101427.69;4952288;29;20493;-66
2022/08/10 10:28:59;;;;;;;7.85;2.50;;;;;;;25.78;77.04;101419.56;4950890;29;20497;-67
2022/08/10 10:31:43;;;;;;;7.15;3.03;;;;;;;25.87;76.63;101422.19;4952335;28;20130;-66
2022/08/10 10:34:28;;;;;;;6.97;2.95;;;;;;;26.03;75.73;101413.44;4948184;28;20031;-66
2022/08/10 10:36:54;;;;;;;7.28;3.13;;;;;;;26.13;74.18;101416.06;4938683;28;20447;-67
2022/08/10 10:39:21;;;;;;;4.97;2.40;;;;;;;26.24;73.64;101419.44;4929789;28;20031;-66
2022/08/10 10:41:54;;;;;;;6.05;2.85;;;;;;;26.31;71.57;101411.56;4934156;28;20616;-66
2022/08/10 10:44:46;;;;;;;4.97;2.83;;;;;;;26.39;71.47;101415.22;4938348;28;20054;-67
2022/08/10 10:47:50;;;;;;;8.60;3.13;;;;;;;26.49;70.97;101404.34;4951799;28;20050;-66
2022/08/10 10:50:24;;;;;;;7.80;3.03;;;;;;;26.51;70.48;101402.31;4928580;29;20040;-66
2022/08/10 10:52:50;;;;;;;8.15;3.00;;;;;;;26.59;70.48;101402.41;4926321;28;20031;-67
2022/08/10 10:55:21;;;;;;;5.82;2.72;;;;;;;26.80;70.14;101402.06;4943094;28;20042;-67
2022/08/10 10:57:55;;;;;;;5.82;2.72;;;;;;;26.96;69.73;101396.81;4966841;28;20036;-69
2022/08/10 11:00:25;;;;;;;5.55;2.70;;;;;;;27.02;69.39;101398.03;4943489;28;20492;-66
2022/08/10 11:03:02;;;;;;;5.05;3.30;;;;;;;26.99;68.04;101383.00;4933820;28;20027;-67
2022/08/10 11:05:33;;;;;;;7.80;2.92;;;;;;;27.14;69.15;101394.88;4951500;28;20034;-67
2022/08/10 11:08:02;;;;;;;5.03;2.85;;;;;;;27.26;69.69;101374.72;4942958;28;20058;-66
2022/08/10 11:10:36;;;;;;;11.30;3.35;;;;;;;27.39;67.90;101383.22;4957047;28;20188;-66
2022/08/10 11:13:19;;;;;;;4.35;2.90;;;;;;;27.55;67.75;101368.97;4934294;28;20027;-66
2022/08/10 11:16:05;;;;;;;9.50;2.72;;;;;;;27.67;66.63;101375.78;4964703;28;20042;-65
2022/08/10 11:18:33;;;;;;;8.60;2.75;;;;;;;27.77;64.25;101371.09;4915145;28;20031;-66
2022/08/10 11:21:30;;;;;;;7.18;2.95;;;;;;;28.00;64.01;101371.31;4945200;28;20474;-67
2022/08/10 11:24:08;;;;;;;7.55;2.75;;;;;;;28.10;62.40;101355.81;4940450;29;20031;-67
2022/08/10 11:26:44;;;;;;;3.67;2.30;;;;;;;28.34;62.92;101353.13;5002823;28;20062;-67
2022/08/10 11:29:24;;;;;;;5.70;2.60;;;;;;;28.54;62.31;101334.69;4942039;28;20035;-66
2022/08/10 11:31:57;;;;;;;8.18;3.03;;;;;;;28.91;59.30;101361.22;4949977;28;20039;-65
2022/08/10 11:34:51;;;;;;;7.32;2.53;;;;;;;29.10;58.67;101349.19;4951057;28;20046;-68
2022/08/10 11:37:25;;;;;;;8.60;3.22;;;;;;;29.34;58.49;101347.25;4934679;29;20028;-66
2022/08/10 11:40:15;;;;;;;7.47;2.70;;;;;;;29.62;56.99;101350.34;4942409;28;20034;-66
2022/08/10 11:42:50;;;;;;;5.55;2.83;;;;;;;29.95;54.61;101351.03;4921782;28;20031;-66
2022/08/10 11:45:20;;;;;;;7.53;2.53;;;;;;;30.25;54.96;101338.47;4936416;29;20043;-66